sensor_id;sensor_type;location;lat;lon;timestamp;P1;durP1;ratioP1;P2;durP2;ratioP2
24383;SDS011;12504;52.870;8.798;2024-02-21T00:02:25;28.85;;;12.05;;
24383;SDS011;12504;52.870;8.798;2024-02-21T00:04:51;37.78;;;13.02;;
24383;SDS011;12504;52.870;8.798;2024-02-21T00:07:17;34.08;;;13.90;;
24383;SDS011;12504;52.870;8.798;2024-02-21T00:09:44;41.75;;;13.48;;
24383;SDS011;12504;52.870;8.798;2024-02-21T00:12:10;34.15;;;14.13;;
24383;SDS011;12504;52.870;8.798;2024-02-21T00:14:38;37.55;;;13.45;;
24383;SDS011;12504;52.870;8.798;2024-02-21T00:17:05;35.08;;;11.65;;
24383;SDS011;12504;52.870;8.798;2024-02-21T00:19:31;33.78;;;13.48;;
24383;SDS011;12504;52.870;8.798;2024-02-21T00:21:57;31.65;;;14.27;;
24383;SDS011;12504;52.870;8.798;2024-02-21T00:24:23;30.75;;;13.98;;
24383;SDS011;12504;52.870;8.798;2024-02-21T00:26:49;31.17;;;15.13;;
24383;SDS011;12504;52.870;8.798;2024-02-21T00:29:15;40.85;;;14.65;;
24383;SDS011;12504;52.870;8.798;2024-02-21T00:31:41;31.45;;;12.65;;
24383;SDS011;12504;52.870;8.798;2024-02-21T00:34:07;28.27;;;13.27;;
24383;SDS011;12504;52.870;8.798;2024-02-21T00:36:33;33.67;;;13.77;;
24383;SDS011;12504;52.870;8.798;2024-02-21T00:38:59;38.33;;;15.68;;
24383;SDS011;12504;52.870;8.798;2024-02-21T00:41:25;39.97;;;13.63;;
24383;SDS011;12504;52.870;8.798;2024-02-21T00:43:51;40.05;;;14.68;;
24383;SDS011;12504;52.870;8.798;2024-02-21T00:46:17;36.92;;;13.85;;
24383;SDS011;12504;52.870;8.798;2024-02-21T00:48:43;34.40;;;13.25;;
24383;SDS011;12504;52.870;8.798;2024-02-21T00:51:09;43.08;;;14.38;;
24383;SDS011;12504;52.870;8.798;2024-02-21T00:53:35;33.35;;;14.63;;
24383;SDS011;12504;52.870;8.798;2024-02-21T00:56:04;32.63;;;14.50;;
24383;SDS011;12504;52.870;8.798;2024-02-21T00:58:30;44.92;;;15.98;;
24383;SDS011;12504;52.870;8.798;2024-02-21T01:00:57;40.65;;;14.80;;
24383;SDS011;12504;52.870;8.798;2024-02-21T01:03:23;34.90;;;15.25;;
24383;SDS011;12504;52.870;8.798;2024-02-21T01:05:49;40.97;;;15.10;;
24383;SDS011;12504;52.870;8.798;2024-02-21T01:08:15;40.33;;;13.90;;
24383;SDS011;12504;52.870;8.798;2024-02-21T01:10:41;41.00;;;15.73;;
24383;SDS011;12504;52.870;8.798;2024-02-21T01:13:08;31.55;;;14.02;;
24383;SDS011;12504;52.870;8.798;2024-02-21T01:15:34;45.70;;;15.65;;
24383;SDS011;12504;52.870;8.798;2024-02-21T01:18:00;43.70;;;15.48;;
24383;SDS011;12504;52.870;8.798;2024-02-21T01:20:26;35.78;;;15.35;;
24383;SDS011;12504;52.870;8.798;2024-02-21T01:22:52;32.30;;;13.98;;
24383;SDS011;12504;52.870;8.798;2024-02-21T01:25:18;37.67;;;15.23;;
24383;SDS011;12504;52.870;8.798;2024-02-21T01:27:44;39.92;;;15.82;;
24383;SDS011;12504;52.870;8.798;2024-02-21T01:30:11;42.30;;;15.13;;
24383;SDS011;12504;52.870;8.798;2024-02-21T01:32:37;32.75;;;14.40;;
24383;SDS011;12504;52.870;8.798;2024-02-21T01:35:03;44.10;;;15.43;;
24383;SDS011;12504;52.870;8.798;2024-02-21T01:37:29;32.55;;;14.30;;
24383;SDS011;12504;52.870;8.798;2024-02-21T01:39:55;43.88;;;14.88;;
24383;SDS011;12504;52.870;8.798;2024-02-21T01:42:21;33.25;;;16.35;;
24383;SDS011;12504;52.870;8.798;2024-02-21T01:44:47;40.88;;;15.23;;
24383;SDS011;12504;52.870;8.798;2024-02-21T01:47:14;35.45;;;14.57;;
24383;SDS011;12504;52.870;8.798;2024-02-21T01:49:40;43.35;;;14.20;;
24383;SDS011;12504;52.870;8.798;2024-02-21T01:52:07;30.27;;;13.93;;
24383;SDS011;12504;52.870;8.798;2024-02-21T01:54:33;34.90;;;14.27;;
24383;SDS011;12504;52.870;8.798;2024-02-21T01:56:59;33.58;;;15.50;;
24383;SDS011;12504;52.870;8.798;2024-02-21T01:59:25;35.53;;;15.60;;
24383;SDS011;12504;52.870;8.798;2024-02-21T02:01:52;46.78;;;15.20;;
24383;SDS011;12504;52.870;8.798;2024-02-21T02:04:20;32.35;;;14.57;;
24383;SDS011;12504;52.870;8.798;2024-02-21T02:06:46;34.25;;;13.20;;
24383;SDS011;12504;52.870;8.798;2024-02-21T02:09:12;37.20;;;13.70;;
24383;SDS011;12504;52.870;8.798;2024-02-21T02:11:38;32.33;;;14.75;;
24383;SDS011;12504;52.870;8.798;2024-02-21T02:14:04;35.95;;;14.52;;
24383;SDS011;12504;52.870;8.798;2024-02-21T02:16:30;43.10;;;14.75;;
24383;SDS011;12504;52.870;8.798;2024-02-21T02:18:56;38.75;;;14.57;;
24383;SDS011;12504;52.870;8.798;2024-02-21T02:21:23;38.42;;;14.43;;
24383;SDS011;12504;52.870;8.798;2024-02-21T02:23:52;43.15;;;15.07;;
24383;SDS011;12504;52.870;8.798;2024-02-21T02:26:19;30.23;;;13.98;;
24383;SDS011;12504;52.870;8.798;2024-02-21T02:28:45;34.22;;;13.02;;
24383;SDS011;12504;52.870;8.798;2024-02-21T02:31:11;40.65;;;15.73;;
24383;SDS011;12504;52.870;8.798;2024-02-21T02:33:37;36.92;;;15.05;;
24383;SDS011;12504;52.870;8.798;2024-02-21T02:36:03;40.95;;;14.90;;
24383;SDS011;12504;52.870;8.798;2024-02-21T02:38:30;30.90;;;13.52;;
24383;SDS011;12504;52.870;8.798;2024-02-21T02:40:56;32.83;;;14.43;;
24383;SDS011;12504;52.870;8.798;2024-02-21T02:43:22;32.47;;;14.35;;
24383;SDS011;12504;52.870;8.798;2024-02-21T02:45:48;36.80;;;14.93;;
24383;SDS011;12504;52.870;8.798;2024-02-21T02:48:14;36.30;;;14.10;;
24383;SDS011;12504;52.870;8.798;2024-02-21T02:50:40;42.10;;;14.73;;
24383;SDS011;12504;52.870;8.798;2024-02-21T02:53:06;34.50;;;14.07;;
24383;SDS011;12504;52.870;8.798;2024-02-21T02:55:32;30.52;;;14.05;;
24383;SDS011;12504;52.870;8.798;2024-02-21T02:58:00;37.22;;;15.05;;
24383;SDS011;12504;52.870;8.798;2024-02-21T03:00:26;41.10;;;14.10;;
24383;SDS011;12504;52.870;8.798;2024-02-21T03:02:52;42.28;;;14.52;;
24383;SDS011;12504;52.870;8.798;2024-02-21T03:05:19;36.67;;;14.10;;
24383;SDS011;12504;52.870;8.798;2024-02-21T03:07:46;41.35;;;15.18;;
24383;SDS011;12504;52.870;8.798;2024-02-21T03:10:12;39.35;;;15.25;;
24383;SDS011;12504;52.870;8.798;2024-02-21T03:12:38;38.53;;;14.60;;
24383;SDS011;12504;52.870;8.798;2024-02-21T03:15:05;37.97;;;14.13;;
24383;SDS011;12504;52.870;8.798;2024-02-21T03:17:31;39.40;;;13.65;;
24383;SDS011;12504;52.870;8.798;2024-02-21T03:19:59;32.30;;;14.43;;
24383;SDS011;12504;52.870;8.798;2024-02-21T03:22:25;35.53;;;13.85;;
24383;SDS011;12504;52.870;8.798;2024-02-21T03:24:51;38.38;;;13.40;;
24383;SDS011;12504;52.870;8.798;2024-02-21T03:27:17;31.05;;;12.95;;
24383;SDS011;12504;52.870;8.798;2024-02-21T03:29:43;39.08;;;14.45;;
24383;SDS011;12504;52.870;8.798;2024-02-21T03:32:09;29.25;;;13.63;;
24383;SDS011;12504;52.870;8.798;2024-02-21T03:34:35;40.03;;;13.82;;
24383;SDS011;12504;52.870;8.798;2024-02-21T03:37:01;37.30;;;14.43;;
24383;SDS011;12504;52.870;8.798;2024-02-21T03:39:30;38.00;;;13.50;;
24383;SDS011;12504;52.870;8.798;2024-02-21T03:41:57;38.43;;;15.80;;
24383;SDS011;12504;52.870;8.798;2024-02-21T03:44:25;36.88;;;15.18;;
24383;SDS011;12504;52.870;8.798;2024-02-21T03:46:52;27.98;;;13.45;;
24383;SDS011;12504;52.870;8.798;2024-02-21T03:49:18;36.42;;;14.30;;
24383;SDS011;12504;52.870;8.798;2024-02-21T03:51:44;40.33;;;15.13;;
24383;SDS011;12504;52.870;8.798;2024-02-21T03:54:10;32.50;;;13.60;;
24383;SDS011;12504;52.870;8.798;2024-02-21T03:56:37;36.53;;;13.90;;
24383;SDS011;12504;52.870;8.798;2024-02-21T03:59:06;33.13;;;13.50;;
24383;SDS011;12504;52.870;8.798;2024-02-21T04:01:33;31.48;;;12.25;;
24383;SDS011;12504;52.870;8.798;2024-02-21T04:04:02;31.88;;;12.20;;
24383;SDS011;12504;52.870;8.798;2024-02-21T04:06:28;26.92;;;13.43;;
24383;SDS011;12504;52.870;8.798;2024-02-21T04:08:54;34.22;;;13.70;;
24383;SDS011;12504;52.870;8.798;2024-02-21T04:11:20;30.98;;;13.43;;
24383;SDS011;12504;52.870;8.798;2024-02-21T04:13:46;38.47;;;14.65;;
24383;SDS011;12504;52.870;8.798;2024-02-21T04:16:14;37.70;;;13.43;;
24383;SDS011;12504;52.870;8.798;2024-02-21T04:18:40;29.27;;;13.25;;
24383;SDS011;12504;52.870;8.798;2024-02-21T04:21:07;35.30;;;14.35;;
24383;SDS011;12504;52.870;8.798;2024-02-21T04:23:33;33.17;;;13.82;;
24383;SDS011;12504;52.870;8.798;2024-02-21T04:25:59;31.33;;;13.10;;
24383;SDS011;12504;52.870;8.798;2024-02-21T04:28:25;37.33;;;13.32;;
24383;SDS011;12504;52.870;8.798;2024-02-21T04:30:51;34.95;;;14.18;;
24383;SDS011;12504;52.870;8.798;2024-02-21T04:33:17;32.50;;;13.73;;
24383;SDS011;12504;52.870;8.798;2024-02-21T04:35:43;43.97;;;15.38;;
24383;SDS011;12504;52.870;8.798;2024-02-21T04:38:09;40.97;;;15.50;;
24383;SDS011;12504;52.870;8.798;2024-02-21T04:40:36;38.28;;;14.20;;
24383;SDS011;12504;52.870;8.798;2024-02-21T04:43:02;29.38;;;14.18;;
24383;SDS011;12504;52.870;8.798;2024-02-21T04:45:28;35.45;;;15.30;;
24383;SDS011;12504;52.870;8.798;2024-02-21T04:47:54;33.50;;;14.75;;
24383;SDS011;12504;52.870;8.798;2024-02-21T04:50:20;34.53;;;13.88;;
24383;SDS011;12504;52.870;8.798;2024-02-21T04:52:46;39.33;;;14.02;;
24383;SDS011;12504;52.870;8.798;2024-02-21T04:55:12;34.55;;;12.55;;
24383;SDS011;12504;52.870;8.798;2024-02-21T04:57:38;34.55;;;13.68;;
24383;SDS011;12504;52.870;8.798;2024-02-21T05:00:07;37.05;;;14.25;;
24383;SDS011;12504;52.870;8.798;2024-02-21T05:02:37;28.77;;;13.43;;
24383;SDS011;12504;52.870;8.798;2024-02-21T05:05:03;28.70;;;13.27;;
24383;SDS011;12504;52.870;8.798;2024-02-21T05:07:29;37.15;;;12.48;;
24383;SDS011;12504;52.870;8.798;2024-02-21T05:09:55;24.88;;;11.13;;
24383;SDS011;12504;52.870;8.798;2024-02-21T05:12:21;33.58;;;11.77;;
24383;SDS011;12504;52.870;8.798;2024-02-21T05:14:47;24.98;;;11.98;;
24383;SDS011;12504;52.870;8.798;2024-02-21T05:17:13;28.90;;;12.38;;
24383;SDS011;12504;52.870;8.798;2024-02-21T05:19:39;33.00;;;12.65;;
24383;SDS011;12504;52.870;8.798;2024-02-21T05:22:05;28.45;;;12.55;;
24383;SDS011;12504;52.870;8.798;2024-02-21T05:24:31;33.05;;;13.27;;
24383;SDS011;12504;52.870;8.798;2024-02-21T05:26:57;29.73;;;12.68;;
24383;SDS011;12504;52.870;8.798;2024-02-21T05:29:23;27.85;;;12.20;;
24383;SDS011;12504;52.870;8.798;2024-02-21T05:34:19;27.83;;;12.38;;
24383;SDS011;12504;52.870;8.798;2024-02-21T05:36:45;30.33;;;12.82;;
24383;SDS011;12504;52.870;8.798;2024-02-21T05:39:11;29.23;;;12.30;;
24383;SDS011;12504;52.870;8.798;2024-02-21T05:41:38;25.83;;;12.15;;
24383;SDS011;12504;52.870;8.798;2024-02-21T05:44:04;25.55;;;10.52;;
24383;SDS011;12504;52.870;8.798;2024-02-21T05:46:30;24.40;;;10.57;;
24383;SDS011;12504;52.870;8.798;2024-02-21T05:48:56;33.15;;;11.43;;
24383;SDS011;12504;52.870;8.798;2024-02-21T05:51:22;25.27;;;12.02;;
24383;SDS011;12504;52.870;8.798;2024-02-21T05:53:48;23.35;;;11.35;;
24383;SDS011;12504;52.870;8.798;2024-02-21T05:56:14;24.55;;;11.05;;
24383;SDS011;12504;52.870;8.798;2024-02-21T05:58:40;31.00;;;12.73;;
24383;SDS011;12504;52.870;8.798;2024-02-21T06:01:07;31.30;;;13.82;;
24383;SDS011;12504;52.870;8.798;2024-02-21T06:03:33;32.75;;;12.02;;
24383;SDS011;12504;52.870;8.798;2024-02-21T06:05:59;25.75;;;11.85;;
24383;SDS011;12504;52.870;8.798;2024-02-21T06:08:26;28.48;;;11.57;;
24383;SDS011;12504;52.870;8.798;2024-02-21T06:10:52;30.95;;;12.23;;
24383;SDS011;12504;52.870;8.798;2024-02-21T06:13:23;28.00;;;12.73;;
24383;SDS011;12504;52.870;8.798;2024-02-21T06:15:50;30.83;;;12.32;;
24383;SDS011;12504;52.870;8.798;2024-02-21T06:18:19;28.50;;;12.65;;
24383;SDS011;12504;52.870;8.798;2024-02-21T06:20:45;27.30;;;12.32;;
24383;SDS011;12504;52.870;8.798;2024-02-21T06:23:12;31.08;;;11.77;;
24383;SDS011;12504;52.870;8.798;2024-02-21T06:25:38;33.65;;;13.98;;
24383;SDS011;12504;52.870;8.798;2024-02-21T06:28:05;35.08;;;12.57;;
24383;SDS011;12504;52.870;8.798;2024-02-21T06:30:31;29.45;;;13.40;;
24383;SDS011;12504;52.870;8.798;2024-02-21T06:32:57;32.47;;;13.15;;
24383;SDS011;12504;52.870;8.798;2024-02-21T06:35:24;26.83;;;12.05;;
24383;SDS011;12504;52.870;8.798;2024-02-21T06:37:53;31.48;;;13.27;;
24383;SDS011;12504;52.870;8.798;2024-02-21T06:40:20;30.08;;;12.68;;
24383;SDS011;12504;52.870;8.798;2024-02-21T06:42:47;36.95;;;14.20;;
24383;SDS011;12504;52.870;8.798;2024-02-21T06:45:13;30.70;;;13.20;;
24383;SDS011;12504;52.870;8.798;2024-02-21T06:47:39;31.33;;;12.95;;
24383;SDS011;12504;52.870;8.798;2024-02-21T06:50:05;37.33;;;13.23;;
24383;SDS011;12504;52.870;8.798;2024-02-21T06:52:31;33.90;;;13.80;;
24383;SDS011;12504;52.870;8.798;2024-02-21T06:54:57;30.35;;;13.40;;
24383;SDS011;12504;52.870;8.798;2024-02-21T06:57:23;35.28;;;14.25;;
24383;SDS011;12504;52.870;8.798;2024-02-21T06:59:49;30.58;;;13.85;;
24383;SDS011;12504;52.870;8.798;2024-02-21T07:02:15;33.20;;;13.85;;
24383;SDS011;12504;52.870;8.798;2024-02-21T07:04:41;32.38;;;13.35;;
24383;SDS011;12504;52.870;8.798;2024-02-21T07:07:08;32.03;;;14.23;;
24383;SDS011;12504;52.870;8.798;2024-02-21T07:09:34;39.00;;;14.13;;
24383;SDS011;12504;52.870;8.798;2024-02-21T07:12:01;34.35;;;14.23;;
24383;SDS011;12504;52.870;8.798;2024-02-21T07:14:30;36.58;;;16.38;;
24383;SDS011;12504;52.870;8.798;2024-02-21T07:16:57;39.97;;;15.05;;
24383;SDS011;12504;52.870;8.798;2024-02-21T07:19:23;42.08;;;15.50;;
24383;SDS011;12504;52.870;8.798;2024-02-21T07:21:49;44.35;;;16.75;;
24383;SDS011;12504;52.870;8.798;2024-02-21T07:24:16;33.35;;;15.27;;
24383;SDS011;12504;52.870;8.798;2024-02-21T07:26:42;34.67;;;15.45;;
24383;SDS011;12504;52.870;8.798;2024-02-21T07:29:08;41.08;;;16.63;;
24383;SDS011;12504;52.870;8.798;2024-02-21T07:31:41;42.95;;;16.23;;
24383;SDS011;12504;52.870;8.798;2024-02-21T07:34:07;38.10;;;16.00;;
24383;SDS011;12504;52.870;8.798;2024-02-21T07:36:33;40.53;;;15.82;;
24383;SDS011;12504;52.870;8.798;2024-02-21T07:38:59;33.70;;;14.52;;
24383;SDS011;12504;52.870;8.798;2024-02-21T07:41:25;37.03;;;15.60;;
24383;SDS011;12504;52.870;8.798;2024-02-21T07:43:52;39.33;;;15.05;;
24383;SDS011;12504;52.870;8.798;2024-02-21T07:46:18;41.50;;;15.60;;
24383;SDS011;12504;52.870;8.798;2024-02-21T07:48:47;45.00;;;15.63;;
24383;SDS011;12504;52.870;8.798;2024-02-21T07:51:13;39.87;;;17.33;;
24383;SDS011;12504;52.870;8.798;2024-02-21T07:53:43;39.50;;;16.33;;
24383;SDS011;12504;52.870;8.798;2024-02-21T07:56:13;37.50;;;16.65;;
24383;SDS011;12504;52.870;8.798;2024-02-21T07:58:39;49.95;;;16.58;;
24383;SDS011;12504;52.870;8.798;2024-02-21T08:01:05;40.78;;;16.27;;
24383;SDS011;12504;52.870;8.798;2024-02-21T08:03:31;45.17;;;16.48;;
24383;SDS011;12504;52.870;8.798;2024-02-21T08:05:58;35.38;;;15.32;;
24383;SDS011;12504;52.870;8.798;2024-02-21T08:08:24;30.40;;;14.52;;
24383;SDS011;12504;52.870;8.798;2024-02-21T08:10:50;42.92;;;16.58;;
24383;SDS011;12504;52.870;8.798;2024-02-21T08:13:16;40.70;;;15.00;;
24383;SDS011;12504;52.870;8.798;2024-02-21T08:15:42;41.05;;;16.05;;
24383;SDS011;12504;52.870;8.798;2024-02-21T08:18:08;39.13;;;14.90;;
24383;SDS011;12504;52.870;8.798;2024-02-21T08:20:34;32.15;;;13.15;;
24383;SDS011;12504;52.870;8.798;2024-02-21T08:23:01;38.83;;;16.35;;
24383;SDS011;12504;52.870;8.798;2024-02-21T08:25:27;31.88;;;13.75;;
24383;SDS011;12504;52.870;8.798;2024-02-21T08:27:56;35.70;;;12.85;;
24383;SDS011;12504;52.870;8.798;2024-02-21T08:30:23;33.83;;;13.00;;
24383;SDS011;12504;52.870;8.798;2024-02-21T08:32:49;35.35;;;13.45;;
24383;SDS011;12504;52.870;8.798;2024-02-21T08:35:15;31.40;;;13.80;;
24383;SDS011;12504;52.870;8.798;2024-02-21T08:37:45;34.38;;;13.48;;
24383;SDS011;12504;52.870;8.798;2024-02-21T08:40:13;34.97;;;13.60;;
24383;SDS011;12504;52.870;8.798;2024-02-21T08:42:42;27.88;;;12.38;;
24383;SDS011;12504;52.870;8.798;2024-02-21T08:45:09;35.72;;;13.02;;
24383;SDS011;12504;52.870;8.798;2024-02-21T08:47:35;29.58;;;12.38;;
24383;SDS011;12504;52.870;8.798;2024-02-21T08:50:01;34.42;;;12.18;;
24383;SDS011;12504;52.870;8.798;2024-02-21T08:52:28;31.70;;;12.82;;
24383;SDS011;12504;52.870;8.798;2024-02-21T08:54:54;26.60;;;11.48;;
24383;SDS011;12504;52.870;8.798;2024-02-21T08:57:20;29.30;;;11.30;;
24383;SDS011;12504;52.870;8.798;2024-02-21T08:59:46;35.63;;;12.55;;
24383;SDS011;12504;52.870;8.798;2024-02-21T09:02:12;28.33;;;12.20;;
24383;SDS011;12504;52.870;8.798;2024-02-21T09:04:39;27.10;;;12.30;;
24383;SDS011;12504;52.870;8.798;2024-02-21T09:07:05;31.38;;;11.80;;
24383;SDS011;12504;52.870;8.798;2024-02-21T09:09:31;29.15;;;11.98;;
24383;SDS011;12504;52.870;8.798;2024-02-21T09:11:58;26.98;;;10.80;;
24383;SDS011;12504;52.870;8.798;2024-02-21T09:14:31;27.40;;;11.00;;
24383;SDS011;12504;52.870;8.798;2024-02-21T09:16:57;32.03;;;13.05;;
24383;SDS011;12504;52.870;8.798;2024-02-21T09:19:23;23.17;;;10.95;;
24383;SDS011;12504;52.870;8.798;2024-02-21T09:21:49;24.45;;;10.15;;
24383;SDS011;12504;52.870;8.798;2024-02-21T09:24:15;29.90;;;11.40;;
24383;SDS011;12504;52.870;8.798;2024-02-21T09:26:41;26.60;;;11.88;;
24383;SDS011;12504;52.870;8.798;2024-02-21T09:29:07;31.05;;;12.38;;
24383;SDS011;12504;52.870;8.798;2024-02-21T09:31:33;26.13;;;12.40;;
24383;SDS011;12504;52.870;8.798;2024-02-21T09:33:59;22.90;;;12.73;;
24383;SDS011;12504;52.870;8.798;2024-02-21T09:36:26;28.40;;;12.32;;
24383;SDS011;12504;52.870;8.798;2024-02-21T09:38:52;35.42;;;12.65;;
24383;SDS011;12504;52.870;8.798;2024-02-21T09:41:26;29.85;;;16.15;;
24383;SDS011;12504;52.870;8.798;2024-02-21T09:43:52;24.98;;;12.50;;
24383;SDS011;12504;52.870;8.798;2024-02-21T09:46:19;27.52;;;11.88;;
24383;SDS011;12504;52.870;8.798;2024-02-21T09:49:04;42.53;;;15.93;;
24383;SDS011;12504;52.870;8.798;2024-02-21T09:51:34;25.85;;;13.75;;
24383;SDS011;12504;52.870;8.798;2024-02-21T09:54:00;25.42;;;10.98;;
24383;SDS011;12504;52.870;8.798;2024-02-21T09:56:28;23.77;;;11.73;;
24383;SDS011;12504;52.870;8.798;2024-02-21T09:58:54;30.88;;;11.88;;
24383;SDS011;12504;52.870;8.798;2024-02-21T10:01:20;23.52;;;11.77;;
24383;SDS011;12504;52.870;8.798;2024-02-21T10:03:47;29.88;;;12.35;;
24383;SDS011;12504;52.870;8.798;2024-02-21T10:06:13;23.27;;;11.10;;
24383;SDS011;12504;52.870;8.798;2024-02-21T10:08:39;26.92;;;11.32;;
24383;SDS011;12504;52.870;8.798;2024-02-21T10:11:05;29.35;;;11.05;;
24383;SDS011;12504;52.870;8.798;2024-02-21T10:13:34;23.13;;;9.75;;
24383;SDS011;12504;52.870;8.798;2024-02-21T10:16:03;21.92;;;9.30;;
24383;SDS011;12504;52.870;8.798;2024-02-21T10:18:30;23.23;;;10.02;;
24383;SDS011;12504;52.870;8.798;2024-02-21T10:20:59;23.55;;;9.23;;
24383;SDS011;12504;52.870;8.798;2024-02-21T10:23:25;19.98;;;8.98;;
24383;SDS011;12504;52.870;8.798;2024-02-21T10:25:51;21.83;;;8.90;;
24383;SDS011;12504;52.870;8.798;2024-02-21T10:28:18;17.92;;;9.07;;
24383;SDS011;12504;52.870;8.798;2024-02-21T10:33:15;21.40;;;9.32;;
24383;SDS011;12504;52.870;8.798;2024-02-21T10:35:41;18.63;;;9.10;;
24383;SDS011;12504;52.870;8.798;2024-02-21T10:38:07;18.63;;;9.25;;
24383;SDS011;12504;52.870;8.798;2024-02-21T10:40:33;43.50;;;19.20;;
24383;SDS011;12504;52.870;8.798;2024-02-21T10:43:00;21.13;;;9.88;;
24383;SDS011;12504;52.870;8.798;2024-02-21T10:45:30;19.40;;;8.38;;
24383;SDS011;12504;52.870;8.798;2024-02-21T10:48:01;15.85;;;8.50;;
24383;SDS011;12504;52.870;8.798;2024-02-21T10:50:27;23.58;;;9.85;;
24383;SDS011;12504;52.870;8.798;2024-02-21T10:52:58;18.63;;;8.40;;
24383;SDS011;12504;52.870;8.798;2024-02-21T10:55:26;15.52;;;9.02;;
24383;SDS011;12504;52.870;8.798;2024-02-21T10:57:55;18.52;;;8.30;;
24383;SDS011;12504;52.870;8.798;2024-02-21T11:00:22;18.88;;;7.57;;
24383;SDS011;12504;52.870;8.798;2024-02-21T11:02:52;17.67;;;8.88;;
24383;SDS011;12504;52.870;8.798;2024-02-21T11:05:19;25.27;;;9.27;;
24383;SDS011;12504;52.870;8.798;2024-02-21T11:07:45;20.80;;;10.45;;
24383;SDS011;12504;52.870;8.798;2024-02-21T11:10:23;20.38;;;10.70;;
24383;SDS011;12504;52.870;8.798;2024-02-21T11:12:53;18.98;;;9.35;;
24383;SDS011;12504;52.870;8.798;2024-02-21T11:15:24;17.85;;;8.75;;
24383;SDS011;12504;52.870;8.798;2024-02-21T11:17:55;19.13;;;9.75;;
24383;SDS011;12504;52.870;8.798;2024-02-21T11:22:47;19.63;;;8.98;;
24383;SDS011;12504;52.870;8.798;2024-02-21T11:25:21;15.15;;;8.63;;
24383;SDS011;12504;52.870;8.798;2024-02-21T11:27:47;20.42;;;9.60;;
24383;SDS011;12504;52.870;8.798;2024-02-21T11:30:13;20.55;;;8.27;;
24383;SDS011;12504;52.870;8.798;2024-02-21T11:32:47;17.23;;;8.55;;
24383;SDS011;12504;52.870;8.798;2024-02-21T11:35:19;14.57;;;8.15;;
24383;SDS011;12504;52.870;8.798;2024-02-21T11:37:45;14.77;;;8.57;;
24383;SDS011;12504;52.870;8.798;2024-02-21T11:40:11;19.10;;;7.70;;
24383;SDS011;12504;52.870;8.798;2024-02-21T11:42:38;17.58;;;9.35;;
24383;SDS011;12504;52.870;8.798;2024-02-21T11:45:04;14.98;;;8.35;;
24383;SDS011;12504;52.870;8.798;2024-02-21T11:47:32;16.55;;;7.80;;
24383;SDS011;12504;52.870;8.798;2024-02-21T11:49:58;16.90;;;10.45;;
24383;SDS011;12504;52.870;8.798;2024-02-21T11:52:24;15.60;;;7.90;;
24383;SDS011;12504;52.870;8.798;2024-02-21T11:54:51;19.50;;;8.38;;
24383;SDS011;12504;52.870;8.798;2024-02-21T11:57:18;10.88;;;6.15;;
24383;SDS011;12504;52.870;8.798;2024-02-21T11:59:44;14.48;;;7.32;;
24383;SDS011;12504;52.870;8.798;2024-02-21T12:02:11;12.93;;;6.25;;
24383;SDS011;12504;52.870;8.798;2024-02-21T12:04:37;12.63;;;5.63;;
24383;SDS011;12504;52.870;8.798;2024-02-21T12:07:04;8.80;;;5.00;;
24383;SDS011;12504;52.870;8.798;2024-02-21T12:09:30;13.95;;;7.07;;
24383;SDS011;12504;52.870;8.798;2024-02-21T12:12:00;13.65;;;6.20;;
24383;SDS011;12504;52.870;8.798;2024-02-21T12:14:27;17.88;;;6.57;;
24383;SDS011;12504;52.870;8.798;2024-02-21T12:16:54;12.50;;;6.18;;
24383;SDS011;12504;52.870;8.798;2024-02-21T12:19:23;8.88;;;5.53;;
24383;SDS011;12504;52.870;8.798;2024-02-21T12:21:49;13.93;;;5.68;;
24383;SDS011;12504;52.870;8.798;2024-02-21T12:24:16;9.75;;;5.13;;
24383;SDS011;12504;52.870;8.798;2024-02-21T12:26:42;11.35;;;5.53;;
24383;SDS011;12504;52.870;8.798;2024-02-21T12:29:09;7.38;;;5.35;;
24383;SDS011;12504;52.870;8.798;2024-02-21T12:31:36;11.75;;;5.05;;
24383;SDS011;12504;52.870;8.798;2024-02-21T12:34:02;10.98;;;4.97;;
24383;SDS011;12504;52.870;8.798;2024-02-21T12:36:29;9.73;;;6.32;;
24383;SDS011;12504;52.870;8.798;2024-02-21T12:38:55;8.52;;;4.88;;
24383;SDS011;12504;52.870;8.798;2024-02-21T12:41:21;12.90;;;5.97;;
24383;SDS011;12504;52.870;8.798;2024-02-21T12:43:47;10.50;;;5.18;;
24383;SDS011;12504;52.870;8.798;2024-02-21T12:46:13;12.57;;;6.22;;
24383;SDS011;12504;52.870;8.798;2024-02-21T12:48:39;11.50;;;6.07;;
24383;SDS011;12504;52.870;8.798;2024-02-21T12:51:05;11.13;;;6.25;;
24383;SDS011;12504;52.870;8.798;2024-02-21T12:53:31;14.35;;;5.43;;
24383;SDS011;12504;52.870;8.798;2024-02-21T12:55:57;13.32;;;5.78;;
24383;SDS011;12504;52.870;8.798;2024-02-21T12:58:24;11.45;;;5.82;;
24383;SDS011;12504;52.870;8.798;2024-02-21T13:00:50;13.73;;;6.35;;
24383;SDS011;12504;52.870;8.798;2024-02-21T13:03:16;13.43;;;6.50;;
24383;SDS011;12504;52.870;8.798;2024-02-21T13:05:42;13.50;;;6.95;;
24383;SDS011;12504;52.870;8.798;2024-02-21T13:08:08;12.23;;;6.68;;
24383;SDS011;12504;52.870;8.798;2024-02-21T13:10:35;16.48;;;6.85;;
24383;SDS011;12504;52.870;8.798;2024-02-21T13:13:01;12.35;;;6.13;;
24383;SDS011;12504;52.870;8.798;2024-02-21T13:15:27;12.60;;;6.40;;
24383;SDS011;12504;52.870;8.798;2024-02-21T13:17:54;11.77;;;7.07;;
24383;SDS011;12504;52.870;8.798;2024-02-21T13:20:20;14.10;;;8.20;;
24383;SDS011;12504;52.870;8.798;2024-02-21T13:22:46;18.73;;;8.55;;
24383;SDS011;12504;52.870;8.798;2024-02-21T13:25:12;16.50;;;8.15;;
24383;SDS011;12504;52.870;8.798;2024-02-21T13:27:43;14.40;;;8.30;;
24383;SDS011;12504;52.870;8.798;2024-02-21T13:30:10;11.07;;;6.63;;
24383;SDS011;12504;52.870;8.798;2024-02-21T13:32:36;12.98;;;7.70;;
24383;SDS011;12504;52.870;8.798;2024-02-21T13:35:03;12.27;;;8.15;;
24383;SDS011;12504;52.870;8.798;2024-02-21T13:37:29;14.20;;;7.35;;
24383;SDS011;12504;52.870;8.798;2024-02-21T13:39:55;17.55;;;7.68;;
24383;SDS011;12504;52.870;8.798;2024-02-21T13:42:21;11.30;;;6.28;;
24383;SDS011;12504;52.870;8.798;2024-02-21T13:44:49;14.30;;;7.63;;
24383;SDS011;12504;52.870;8.798;2024-02-21T13:47:15;12.43;;;6.75;;
24383;SDS011;12504;52.870;8.798;2024-02-21T13:49:41;13.55;;;6.80;;
24383;SDS011;12504;52.870;8.798;2024-02-21T13:52:07;13.20;;;6.00;;
24383;SDS011;12504;52.870;8.798;2024-02-21T13:54:34;11.50;;;6.70;;
24383;SDS011;12504;52.870;8.798;2024-02-21T13:57:00;9.77;;;6.40;;
24383;SDS011;12504;52.870;8.798;2024-02-21T13:59:27;9.93;;;5.53;;
24383;SDS011;12504;52.870;8.798;2024-02-21T14:01:54;9.55;;;5.50;;
24383;SDS011;12504;52.870;8.798;2024-02-21T14:04:20;8.90;;;5.00;;
24383;SDS011;12504;52.870;8.798;2024-02-21T14:06:46;13.95;;;5.45;;
24383;SDS011;12504;52.870;8.798;2024-02-21T14:09:12;10.75;;;5.13;;
24383;SDS011;12504;52.870;8.798;2024-02-21T14:11:38;9.35;;;4.70;;
24383;SDS011;12504;52.870;8.798;2024-02-21T14:14:06;9.38;;;4.63;;
24383;SDS011;12504;52.870;8.798;2024-02-21T14:16:32;10.90;;;4.85;;
24383;SDS011;12504;52.870;8.798;2024-02-21T14:18:58;11.60;;;4.70;;
24383;SDS011;12504;52.870;8.798;2024-02-21T14:21:25;12.52;;;5.85;;
24383;SDS011;12504;52.870;8.798;2024-02-21T14:23:51;10.18;;;5.05;;
24383;SDS011;12504;52.870;8.798;2024-02-21T14:26:18;15.30;;;5.20;;
24383;SDS011;12504;52.870;8.798;2024-02-21T14:28:44;10.55;;;4.35;;
24383;SDS011;12504;52.870;8.798;2024-02-21T14:31:11;10.95;;;3.92;;